createdAt,value
2019-01-19T00:01:38.068Z,4.23
2019-01-19T00:04:19.336Z,5.37
2019-01-19T00:07:14.498Z,4.23
2019-01-19T00:10:04.738Z,4.83
2019-01-19T00:12:51.759Z,4.30
2019-01-19T00:15:24.129Z,4.83
2019-01-19T00:18:02.409Z,5.50
2019-01-19T00:20:46.388Z,5.63
2019-01-19T00:23:24.425Z,6.17
2019-01-19T00:26:05.325Z,4.90
2019-01-19T00:28:43.693Z,7.17
2019-01-19T00:31:21.721Z,5.37
2019-01-19T00:34:13.521Z,4.30
2019-01-19T00:36:46.293Z,5.10
2019-01-19T00:39:31.681Z,4.27
2019-01-19T00:42:04.078Z,4.30
2019-01-19T00:44:36.438Z,4.80
2019-01-19T00:47:17.680Z,4.67
2019-01-19T00:49:50.029Z,4.23
2019-01-19T00:52:42.941Z,4.37
2019-01-19T00:55:24.153Z,5.77
2019-01-19T00:58:14.312Z,5.67
2019-01-19T01:00:52.392Z,4.57
2019-01-19T01:03:52.181Z,6.03
2019-01-19T01:06:30.022Z,6.70
2019-01-19T01:09:20.226Z,4.17
2019-01-19T01:12:04.160Z,5.03
2019-01-19T01:14:36.509Z,4.93
2019-01-19T01:17:11.549Z,9.40
2019-01-19T01:20:17.570Z,4.90
2019-01-19T01:23:20.347Z,4.70
2019-01-19T01:26:01.693Z,5.17
2019-01-19T01:28:36.652Z,4.70
2019-01-19T01:31:14.648Z,5.60
2019-01-19T01:34:03.384Z,4.67
2019-01-19T01:36:35.752Z,7.07
2019-01-19T01:39:23.392Z,5.67
2019-01-19T01:42:10.838Z,4.53
2019-01-19T01:44:51.885Z,6.03
2019-01-19T01:47:30.241Z,4.47
2019-01-19T01:50:19.133Z,5.07
2019-01-19T01:53:12.451Z,5.27
2019-01-19T01:55:41.789Z,9.13
2019-01-19T01:58:14.149Z,4.67
2019-01-19T02:00:49.322Z,4.53
2019-01-19T02:03:30.488Z,4.63
2019-01-19T02:06:05.641Z,4.50
2019-01-19T02:08:56.277Z,4.97
2019-01-19T02:11:31.556Z,4.30
2019-01-19T02:14:07.139Z,4.60
2019-01-19T02:16:51.313Z,6.60
2019-01-19T02:19:26.324Z,6.30
2019-01-19T02:22:13.869Z,4.13
2019-01-19T02:24:58.465Z,6.00
2019-01-19T02:27:47.531Z,5.27
2019-01-19T02:30:24.167Z,5.30
2019-01-19T02:32:56.543Z,4.50
2019-01-19T02:35:34.568Z,5.57
2019-01-19T02:38:18.917Z,5.13
2019-01-19T02:40:54.231Z,4.13
2019-01-19T02:43:40.974Z,5.23
2019-01-19T02:46:18.922Z,6.00
2019-01-19T02:49:20.287Z,6.17
2019-01-19T02:52:10.879Z,8.60
2019-01-19T02:55:01.582Z,5.33
2019-01-19T02:57:43.146Z,4.63
2019-01-19T03:00:32.306Z,6.43
2019-01-19T03:03:08.391Z,4.40
2019-01-19T03:05:41.076Z,4.37
2019-01-19T03:08:46.914Z,8.13
2019-01-19T03:11:27.611Z,4.27
2019-01-19T03:14:02.808Z,8.77
2019-01-19T03:16:57.928Z,4.40
2019-01-19T03:19:49.727Z,4.80
2019-01-19T03:22:30.945Z,6.13
2019-01-19T03:25:18.279Z,4.20
2019-01-19T03:27:59.269Z,4.40
2019-01-19T03:30:34.260Z,5.83
2019-01-19T03:33:12.405Z,4.80
2019-01-19T03:35:47.473Z,4.43
2019-01-19T03:38:34.729Z,4.30
2019-01-19T03:41:09.697Z,4.97
2019-01-19T03:43:58.724Z,4.33
2019-01-19T03:46:34.059Z,4.73
2019-01-19T03:49:36.534Z,5.10
2019-01-19T03:52:21.078Z,4.53
2019-01-19T03:58:30.666Z,4.70
2019-01-19T04:01:22.629Z,4.57
2019-01-19T04:10:10.730Z,4.63
2019-01-19T04:13:08.501Z,5.83
2019-01-19T04:19:21.033Z,3.33
2019-01-19T04:22:19.315Z,4.50
2019-01-19T04:24:52.031Z,3.70
2019-01-19T04:27:21.253Z,3.53
2019-01-19T04:29:50.492Z,3.57
2019-01-19T04:32:19.696Z,3.80
2019-01-19T04:34:49.011Z,4.70
2019-01-19T04:37:18.235Z,4.33
2019-01-19T04:39:47.459Z,3.70
2019-01-19T04:42:16.964Z,4.23
2019-01-19T04:44:46.167Z,4.50
2019-01-19T04:47:15.491Z,4.97
2019-01-19T04:49:44.764Z,3.57
2019-01-19T04:52:13.991Z,3.83
2019-01-19T04:54:43.205Z,4.13
2019-01-19T04:57:12.435Z,3.40
2019-01-19T04:59:41.703Z,4.90
2019-01-19T05:02:10.943Z,3.70
2019-01-19T05:04:40.211Z,3.57
2019-01-19T05:07:09.533Z,3.93
2019-01-19T05:09:38.742Z,3.43
2019-01-19T05:12:07.978Z,3.40
2019-01-19T05:14:37.196Z,7.97
2019-01-19T05:17:06.436Z,3.33
2019-01-19T05:19:35.667Z,3.50
2019-01-19T05:22:04.874Z,3.20
2019-01-19T05:24:34.439Z,3.07
2019-01-19T05:27:04.014Z,3.60
2019-01-19T05:29:33.223Z,3.57
2019-01-19T05:32:02.449Z,4.90
2019-01-19T05:34:32.050Z,3.43
2019-01-19T05:37:01.256Z,4.47
2019-01-19T05:39:30.502Z,3.43
2019-01-19T05:41:59.750Z,3.00
2019-01-19T05:44:29.114Z,3.33
2019-01-19T05:46:58.323Z,3.33
2019-01-19T05:49:27.632Z,4.40
2019-01-19T05:51:56.833Z,3.50
2019-01-19T05:54:26.057Z,3.07
2019-01-19T05:56:55.290Z,6.30
2019-01-19T05:59:24.618Z,3.40
2019-01-19T06:01:53.921Z,3.17
2019-01-19T06:04:23.204Z,3.03
2019-01-19T06:06:52.413Z,2.87
2019-01-19T06:09:21.663Z,3.00
2019-01-19T06:11:50.875Z,4.73
2019-01-19T06:14:20.108Z,3.00
2019-01-19T06:16:49.310Z,2.60
2019-01-19T06:19:18.911Z,2.90
2019-01-19T06:21:49.829Z,4.00
2019-01-19T06:24:19.147Z,3.30
2019-01-19T06:26:48.362Z,3.03
2019-01-19T06:29:17.583Z,2.77
2019-01-19T06:31:46.824Z,3.10
2019-01-19T06:34:16.055Z,2.70
2019-01-19T06:36:45.287Z,3.27
2019-01-19T06:39:15.595Z,2.90
2019-01-19T06:41:44.823Z,3.13
2019-01-19T06:44:14.043Z,3.27
2019-01-19T06:46:43.557Z,2.90
2019-01-19T06:49:12.775Z,3.33
2019-01-19T06:51:41.988Z,3.63
2019-01-19T06:54:11.487Z,3.20
2019-01-19T06:56:40.710Z,3.77
2019-01-19T06:59:17.140Z,3.90
2019-01-19T07:01:40.855Z,3.97
2019-01-19T07:04:10.466Z,3.73
2019-01-19T07:06:39.686Z,4.10
2019-01-19T07:09:09.040Z,4.60
2019-01-19T07:11:38.635Z,3.97
2019-01-19T07:14:07.863Z,4.00
2019-01-19T07:16:37.103Z,2.80
2019-01-19T07:19:07.298Z,4.03
2019-01-19T07:21:36.505Z,3.90
2019-01-19T07:24:05.922Z,3.90
2019-01-19T07:26:35.133Z,7.53
2019-01-19T07:29:04.436Z,3.90
2019-01-19T07:31:33.642Z,5.80
2019-01-19T07:34:02.867Z,4.37
2019-01-19T07:36:32.093Z,5.00
2019-01-19T07:39:01.326Z,4.00
2019-01-19T07:41:31.904Z,4.90
2019-01-19T07:44:01.145Z,4.47
2019-01-19T07:46:30.950Z,4.50
2019-01-19T07:49:00.483Z,6.80
2019-01-19T07:51:29.701Z,6.30
2019-01-19T07:53:58.947Z,7.80
2019-01-19T07:56:28.157Z,5.13
2019-01-19T07:58:57.367Z,6.40
2019-01-19T08:01:26.604Z,5.20
2019-01-19T08:03:55.838Z,4.80
2019-01-19T08:06:25.064Z,7.30
2019-01-19T08:08:54.267Z,5.43
2019-01-19T08:11:23.787Z,5.03
2019-01-19T08:13:53.065Z,5.13
2019-01-19T08:16:22.299Z,6.93
2019-01-19T08:18:51.544Z,7.10
2019-01-19T08:21:21.103Z,9.07
2019-01-19T08:23:50.416Z,7.20
2019-01-19T08:26:19.916Z,8.10
2019-01-19T08:28:49.274Z,5.33
2019-01-19T08:31:18.503Z,5.23
2019-01-19T08:33:47.715Z,5.80
2019-01-19T08:36:17.530Z,5.80
2019-01-19T08:38:46.844Z,6.50
2019-01-19T08:41:16.044Z,5.60
2019-01-19T08:43:46.982Z,5.90
2019-01-19T08:46:16.244Z,5.10
2019-01-19T08:48:45.473Z,6.07
2019-01-19T08:51:14.703Z,6.57
2019-01-19T08:53:43.908Z,6.20
2019-01-19T08:56:13.131Z,4.67
2019-01-19T08:58:42.328Z,4.90
2019-01-19T09:01:11.604Z,5.60
2019-01-19T09:03:40.830Z,5.40
2019-01-19T09:06:11.168Z,5.57
2019-01-19T09:08:40.404Z,4.73
2019-01-19T09:11:09.597Z,4.53
2019-01-19T09:13:38.834Z,6.40
2019-01-19T09:16:08.400Z,5.70
2019-01-19T09:18:37.601Z,4.43
2019-01-19T09:21:07.109Z,5.10
2019-01-19T09:23:38.917Z,4.80
2019-01-19T09:26:09.500Z,4.57
2019-01-19T09:28:38.818Z,4.63
2019-01-19T09:31:08.216Z,4.90
2019-01-19T09:33:37.415Z,10.10
2019-01-19T09:36:06.715Z,6.97
2019-01-19T09:38:35.919Z,5.10
2019-01-19T09:41:05.215Z,4.87
2019-01-19T09:43:34.416Z,5.00
2019-01-19T09:46:03.639Z,5.60
2019-01-19T09:48:32.938Z,5.03
2019-01-19T09:51:02.251Z,4.90
2019-01-19T09:53:31.462Z,5.70
2019-01-19T09:56:00.689Z,4.50
2019-01-19T09:58:29.888Z,5.83
2019-01-19T10:00:59.111Z,4.50
2019-01-19T10:03:28.319Z,6.70
2019-01-19T10:05:57.552Z,6.30
2019-01-19T10:08:26.778Z,8.80
2019-01-19T10:10:56.189Z,4.80
2019-01-19T10:13:25.399Z,4.70
2019-01-19T10:15:54.632Z,6.27
2019-01-19T10:18:24.209Z,6.47
2019-01-19T10:20:53.604Z,3.90
2019-01-19T10:23:22.842Z,6.83
2019-01-19T10:25:52.044Z,4.33
2019-01-19T10:28:22.211Z,4.63
2019-01-19T10:30:51.661Z,4.50
2019-01-19T10:33:20.887Z,4.23
2019-01-19T10:35:50.104Z,4.20
2019-01-19T10:38:19.308Z,5.30
2019-01-19T10:40:48.522Z,5.40
2019-01-19T10:43:17.758Z,4.90
2019-01-19T10:45:46.971Z,5.30
2019-01-19T10:48:16.176Z,4.57
2019-01-19T10:50:45.402Z,4.40
2019-01-19T10:53:14.622Z,4.17
2019-01-19T10:55:43.829Z,9.10
2019-01-19T10:58:13.050Z,7.13
2019-01-19T11:00:42.258Z,4.37
2019-01-19T11:03:11.548Z,3.73
2019-01-19T11:05:40.753Z,4.83
2019-01-19T11:08:11.648Z,4.47
2019-01-19T11:10:40.876Z,4.23
2019-01-19T11:13:11.167Z,6.60
2019-01-19T11:15:40.731Z,5.07
2019-01-19T11:18:09.938Z,4.43
2019-01-19T11:20:39.173Z,4.40
2019-01-19T11:23:08.381Z,5.20
2019-01-19T11:25:37.628Z,5.53
2019-01-19T11:28:07.233Z,4.90
2019-01-19T11:30:36.450Z,4.87
2019-01-19T11:33:05.659Z,6.00
2019-01-19T11:35:34.883Z,4.90
2019-01-19T11:38:11.517Z,8.53
2019-01-19T11:40:36.862Z,4.27
2019-01-19T11:43:07.836Z,5.30
2019-01-19T11:45:37.119Z,5.90
2019-01-19T11:48:06.459Z,4.50
2019-01-19T11:50:35.691Z,5.80
2019-01-19T11:53:04.887Z,5.00
2019-01-19T11:55:34.203Z,6.00
2019-01-19T11:58:04.107Z,4.77
2019-01-19T12:00:37.913Z,5.93
2019-01-19T12:03:07.873Z,5.20
2019-01-19T12:05:38.493Z,7.47
2019-01-19T12:08:09.343Z,5.00
2019-01-19T12:10:39.635Z,5.63
2019-01-19T12:13:08.925Z,4.93
2019-01-19T12:15:38.119Z,8.47
2019-01-19T12:18:07.710Z,5.80
2019-01-19T12:20:39.603Z,4.97
2019-01-19T12:23:10.248Z,4.93
2019-01-19T12:25:39.437Z,5.10
2019-01-19T12:28:08.738Z,4.90
2019-01-19T12:30:38.021Z,4.30
2019-01-19T12:33:07.426Z,9.73
2019-01-19T12:35:36.916Z,5.30
2019-01-19T12:38:06.294Z,5.00
2019-01-19T12:40:35.495Z,5.07
2019-01-19T12:43:10.571Z,4.37
2019-01-19T12:45:48.726Z,5.83
2019-01-19T12:48:18.043Z,5.23
2019-01-19T12:50:47.243Z,7.50
2019-01-19T12:53:16.454Z,5.87
2019-01-19T12:55:46.731Z,5.20
2019-01-19T12:58:15.943Z,5.10
2019-01-19T13:00:45.181Z,5.40
2019-01-19T13:03:14.451Z,5.30
2019-01-19T13:05:46.489Z,6.33
2019-01-19T13:08:19.335Z,7.20
2019-01-19T13:10:54.591Z,6.47
2019-01-19T13:13:23.842Z,6.20
2019-01-19T13:16:05.436Z,6.00
2019-01-19T13:18:43.574Z,6.97
2019-01-19T13:21:35.330Z,8.07
2019-01-19T13:24:13.258Z,6.00
2019-01-19T13:26:58.087Z,6.60
2019-01-19T13:29:47.313Z,6.53
2019-01-19T13:32:29.006Z,5.37
2019-01-19T13:35:27.290Z,5.90
2019-01-19T13:38:19.039Z,5.50
2019-01-19T13:41:24.675Z,7.60
2019-01-19T13:44:09.204Z,5.50
2019-01-19T13:47:01.143Z,9.23
2019-01-19T13:49:50.098Z,5.47
2019-01-19T13:52:31.291Z,5.67
2019-01-19T13:55:20.352Z,5.30
2019-01-19T13:57:55.806Z,5.27
2019-01-19T14:00:37.204Z,5.43
2019-01-19T14:03:24.590Z,5.20
2019-01-19T14:05:57.187Z,5.47
2019-01-19T14:08:51.939Z,5.63
2019-01-19T14:11:43.868Z,5.73
2019-01-19T14:14:40.046Z,6.40
2019-01-19T14:17:18.195Z,7.93
2019-01-19T14:19:53.194Z,6.13
2019-01-19T14:22:28.438Z,6.27
2019-01-19T14:25:17.522Z,6.57
2019-01-19T14:27:55.423Z,6.20
2019-01-19T14:30:47.315Z,8.00
2019-01-19T14:33:45.383Z,5.53
2019-01-19T14:36:45.108Z,4.80
2019-01-19T14:39:37.438Z,4.73
2019-01-19T14:42:15.575Z,5.97
2019-01-19T14:44:47.945Z,5.70
2019-01-19T14:47:29.971Z,5.20
2019-01-19T14:50:21.803Z,5.80
2019-01-19T14:53:06.239Z,5.50
2019-01-19T14:55:41.206Z,11.40
2019-01-19T14:58:31.535Z,5.37
2019-01-19T15:01:06.445Z,5.00
2019-01-19T15:03:44.424Z,5.77
2019-01-19T15:06:26.059Z,4.03
2019-01-19T15:09:14.003Z,5.47
2019-01-19T15:12:16.551Z,4.50
2019-01-19T15:14:51.916Z,7.10
2019-01-19T15:17:27.051Z,3.97
2019-01-19T15:20:02.088Z,4.63
2019-01-19T15:22:49.447Z,4.07
2019-01-19T15:25:39.860Z,4.33
2019-01-19T15:28:29.783Z,4.63
2019-01-19T15:31:11.004Z,5.20
2019-01-19T15:33:58.718Z,4.27
2019-01-19T15:36:31.097Z,4.50
2019-01-19T15:39:12.515Z,5.50
2019-01-19T15:41:50.432Z,4.53
2019-01-19T15:44:44.188Z,4.40
2019-01-19T15:47:51.438Z,4.13
2019-01-19T15:50:38.884Z,4.92
2019-01-19T15:53:19.863Z,4.10
2019-01-19T15:56:19.724Z,4.00
2019-01-19T15:59:04.036Z,4.57
2019-01-19T16:01:54.164Z,5.70
2019-01-19T16:04:50.664Z,4.60
2019-01-19T16:07:25.759Z,5.70
2019-01-19T16:10:01.041Z,5.67
2019-01-19T16:12:48.292Z,4.97
2019-01-19T16:15:32.516Z,4.40
2019-01-19T16:18:13.422Z,4.07
2019-01-19T16:20:45.806Z,5.60
2019-01-19T16:23:30.635Z,4.40
2019-01-19T16:26:24.735Z,4.53
2019-01-19T16:29:06.136Z,4.30
2019-01-19T16:32:07.767Z,4.10
2019-01-19T16:34:38.183Z,4.30
2019-01-19T16:37:18.879Z,4.20
2019-01-19T16:40:21.783Z,4.20
2019-01-19T16:42:59.866Z,4.40
2019-01-19T16:45:38.160Z,4.77
2019-01-19T16:48:13.609Z,4.30
2019-01-19T16:50:57.767Z,4.40
2019-01-19T16:53:30.177Z,5.17
2019-01-19T16:56:14.414Z,4.00
2019-01-19T16:58:56.087Z,5.07
2019-01-19T17:01:28.488Z,4.50
2019-01-19T17:04:26.224Z,4.80
2019-01-19T17:07:15.154Z,5.30
2019-01-19T17:09:52.850Z,4.20
2019-01-19T17:12:37.124Z,4.70
2019-01-19T17:15:12.338Z,4.30
2019-01-19T17:17:44.737Z,4.90
2019-01-19T17:20:17.151Z,4.90
2019-01-19T17:22:55.754Z,4.57
2019-01-19T17:25:43.388Z,5.40
2019-01-19T17:28:22.213Z,5.77
2019-01-19T17:31:00.936Z,8.40
2019-01-19T17:33:45.147Z,5.80
2019-01-19T17:36:35.734Z,5.60
2019-01-19T17:39:25.723Z,5.43
2019-01-19T17:42:08.103Z,5.37
2019-01-19T17:44:40.502Z,5.73
2019-01-19T17:47:12.883Z,5.70
2019-01-19T17:49:51.139Z,5.83
2019-01-19T17:52:23.549Z,5.17
2019-01-19T17:55:25.683Z,6.20
2019-01-19T17:58:19.256Z,6.60
2019-01-19T18:01:00.681Z,8.07
2019-01-19T18:03:42.090Z,5.93
2019-01-19T18:06:17.384Z,7.13
2019-01-19T18:08:58.733Z,5.60
2019-01-19T18:11:34.204Z,5.77
2019-01-19T18:14:15.695Z,6.03
2019-01-19T18:17:03.154Z,6.70
2019-01-19T18:19:50.456Z,6.63
2019-01-19T18:22:41.319Z,5.00
2019-01-19T18:25:26.931Z,5.10
2019-01-19T18:28:17.836Z,8.10
2019-01-19T18:31:02.001Z,9.47
2019-01-19T18:33:34.402Z,8.80
2019-01-19T18:36:27.722Z,7.13
2019-01-19T18:39:12.497Z,5.60
2019-01-19T18:42:02.941Z,6.63
2019-01-19T18:44:35.405Z,7.50
2019-01-19T18:47:21.588Z,6.57
2019-01-19T18:50:02.631Z,8.00
2019-01-19T18:52:35.029Z,8.30
2019-01-19T18:55:26.034Z,7.87
2019-01-19T18:58:20.850Z,6.80
2019-01-19T19:01:15.867Z,8.20
2019-01-19T19:04:06.597Z,6.70
2019-01-19T19:07:00.087Z,7.00
2019-01-19T19:09:35.398Z,7.80
2019-01-19T19:12:07.911Z,7.57
2019-01-19T19:14:49.434Z,7.10
2019-01-19T19:17:27.977Z,7.70
2019-01-19T19:20:04.084Z,9.50
2019-01-19T19:23:03.923Z,8.30
2019-01-19T19:25:39.000Z,6.53
2019-01-19T19:28:37.868Z,7.03
2019-01-19T19:31:15.642Z,7.77
2019-01-19T19:34:09.168Z,7.27
2019-01-19T19:37:04.364Z,10.43
2019-01-19T19:39:59.877Z,11.07
2019-01-19T19:42:48.795Z,13.57
2019-01-19T19:45:36.540Z,21.03
2019-01-19T19:48:38.965Z,24.80
2019-01-19T19:51:17.089Z,21.97
2019-01-19T19:53:46.307Z,20.13
2019-01-19T19:56:14.570Z,15.73
2019-01-19T19:58:44.115Z,13.87
2019-01-19T20:01:13.365Z,11.90
2019-01-19T20:03:42.607Z,11.43
2019-01-19T20:06:11.982Z,10.00
2019-01-19T20:08:41.219Z,8.30
2019-01-19T20:11:11.860Z,7.53
2019-01-19T20:13:41.091Z,10.13
2019-01-19T20:16:10.294Z,8.63
2019-01-19T20:18:39.856Z,8.37
2019-01-19T20:21:09.207Z,9.50
2019-01-19T20:23:38.443Z,11.50
2019-01-19T20:26:07.666Z,10.50
2019-01-19T20:28:36.973Z,10.37
2019-01-19T20:31:06.214Z,10.83
2019-01-19T20:33:35.478Z,11.07
2019-01-19T20:36:05.487Z,10.07
2019-01-19T20:38:34.728Z,8.40
2019-01-19T20:41:04.199Z,9.03
2019-01-19T20:43:33.818Z,9.43
2019-01-19T20:46:04.581Z,9.03
2019-01-19T20:48:35.733Z,8.17
2019-01-19T20:51:05.303Z,8.13
2019-01-19T20:53:37.092Z,8.80
2019-01-19T20:56:08.011Z,9.63
2019-01-19T20:58:37.740Z,8.20
2019-01-19T21:04:03.444Z,10.43
2019-01-19T21:06:32.909Z,9.27
2019-01-19T21:09:03.122Z,9.93
2019-01-19T21:11:33.947Z,10.57
2019-01-19T21:14:04.779Z,9.97
2019-01-19T21:16:35.991Z,10.70
2019-01-19T21:19:08.161Z,11.90
2019-01-19T21:27:07.304Z,9.80
2019-01-19T21:29:40.384Z,10.00
2019-01-19T21:32:10.698Z,10.13
2019-01-19T21:34:41.336Z,9.40
2019-01-19T21:37:10.751Z,9.60
2019-01-19T21:39:39.970Z,9.87
2019-01-19T21:42:10.402Z,10.20
2019-01-19T21:44:41.942Z,9.37
2019-01-19T21:47:11.168Z,9.67
2019-01-19T21:49:40.623Z,9.20
2019-01-19T21:52:09.984Z,11.90
2019-01-19T21:54:39.187Z,11.00
2019-01-19T21:57:08.469Z,16.33
2019-01-19T21:59:37.715Z,23.93
2019-01-19T22:02:07.225Z,22.20
2019-01-19T22:04:36.467Z,20.83
2019-01-19T22:07:05.783Z,21.30
2019-01-19T22:09:36.164Z,22.10
2019-01-19T22:12:05.574Z,10.13
2019-01-19T22:14:34.803Z,11.33
2019-01-19T22:17:04.129Z,11.23
2019-01-19T22:19:35.290Z,11.77
2019-01-19T22:22:06.491Z,9.07
2019-01-19T22:24:35.763Z,12.73
2019-01-19T22:27:06.387Z,9.70
2019-01-19T22:29:35.900Z,10.80
2019-01-19T22:32:05.124Z,10.90
2019-01-19T22:34:34.340Z,13.57
2019-01-19T22:37:04.060Z,13.40
2019-01-19T22:39:34.368Z,13.60
2019-01-19T22:42:03.783Z,11.97
2019-01-19T22:44:34.368Z,16.90
2019-01-19T22:47:03.699Z,14.53
2019-01-19T22:49:33.180Z,16.23
2019-01-19T22:52:02.442Z,19.37
2019-01-19T22:54:31.698Z,17.17
2019-01-19T22:57:00.970Z,14.53
2019-01-19T22:59:30.215Z,10.93
2019-01-19T23:01:59.464Z,14.00
2019-01-19T23:04:28.741Z,11.60
2019-01-19T23:06:58.012Z,11.83
2019-01-19T23:09:27.355Z,17.00
2019-01-19T23:11:58.505Z,9.37
2019-01-19T23:14:28.130Z,9.43
2019-01-19T23:16:57.434Z,15.10
2019-01-19T23:19:26.939Z,12.53
2019-01-19T23:21:56.213Z,13.13
2019-01-19T23:24:25.453Z,16.97
2019-01-19T23:26:55.959Z,13.73
2019-01-19T23:29:25.204Z,12.70
2019-01-19T23:31:54.501Z,11.47
2019-01-19T23:34:23.739Z,11.03
2019-01-19T23:36:52.977Z,9.67
2019-01-19T23:39:22.502Z,15.90
2019-01-19T23:41:51.753Z,13.37
2019-01-19T23:44:20.968Z,8.60
2019-01-19T23:46:50.278Z,9.23
2019-01-19T23:49:19.810Z,16.10
2019-01-19T23:51:49.112Z,19.50
2019-01-19T23:54:18.410Z,13.00
2019-01-19T23:56:47.914Z,11.83
2019-01-19T23:59:17.140Z,16.70
